createdAt,value
2023-01-25T00:00:17.324Z,2.90
2023-01-25T00:02:43.920Z,2.90
2023-01-25T00:05:10.563Z,2.90
2023-01-25T00:07:37.207Z,3.00
2023-01-25T00:10:04.086Z,3.00
2023-01-25T00:12:30.867Z,3.00
2023-01-25T00:14:57.571Z,3.00
2023-01-25T00:17:24.886Z,2.90
2023-01-25T00:19:51.563Z,2.90
2023-01-25T00:22:18.129Z,2.90
2023-01-25T00:24:44.690Z,3.00
2023-01-25T00:27:11.241Z,2.90
2023-01-25T00:29:37.828Z,2.90
2023-01-25T00:32:36.595Z,2.90
2023-01-25T00:35:03.799Z,2.90
2023-01-25T00:37:40.078Z,2.80
2023-01-25T00:40:07.397Z,2.90
2023-01-25T00:42:34.058Z,2.90
2023-01-25T00:45:00.901Z,2.90
2023-01-25T00:47:27.488Z,2.90
2023-01-25T00:49:54.322Z,3.00
2023-01-25T00:52:22.405Z,3.00
2023-01-25T00:54:49.361Z,2.90
2023-01-25T00:57:16.182Z,2.90
2023-01-25T00:59:44.493Z,2.90
2023-01-25T01:02:12.128Z,2.90
2023-01-25T01:04:38.934Z,2.90
2023-01-25T01:07:05.654Z,2.90
2023-01-25T01:09:32.547Z,2.90
2023-01-25T01:11:59.270Z,2.90
2023-01-25T01:14:26.087Z,2.90
2023-01-25T01:16:53.253Z,2.90
2023-01-25T01:19:19.928Z,2.90
2023-01-25T01:21:46.697Z,2.80
2023-01-25T01:24:13.385Z,2.80
2023-01-25T01:26:40.284Z,2.70
2023-01-25T01:29:07.408Z,2.80
2023-01-25T01:31:34.520Z,2.80
2023-01-25T01:34:01.851Z,2.80
2023-01-25T01:36:29.958Z,2.80
2023-01-25T01:38:58.189Z,2.70
2023-01-25T01:41:24.754Z,2.80
2023-01-25T01:43:53.056Z,2.80
2023-01-25T01:46:22.673Z,2.80
2023-01-25T01:48:56.118Z,2.90
2023-01-25T01:51:34.976Z,2.80
2023-01-25T01:54:24.098Z,2.80
2023-01-25T01:56:55.646Z,2.70
2023-01-25T01:59:26.134Z,2.80
2023-01-25T02:01:53.305Z,2.80
2023-01-25T02:04:22.532Z,2.80
2023-01-25T02:07:03.394Z,2.80
2023-01-25T02:09:33.823Z,2.80
2023-01-25T02:12:00.856Z,2.80
2023-01-25T02:14:29.525Z,2.80
2023-01-25T02:16:56.964Z,2.90
2023-01-25T02:19:51.467Z,2.90
2023-01-25T02:22:25.204Z,2.80
2023-01-25T02:25:08.373Z,2.80
2023-01-25T02:27:39.165Z,2.80
2023-01-25T02:30:06.838Z,2.80
2023-01-25T02:32:33.860Z,2.80
2023-01-25T02:35:00.724Z,2.80
2023-01-25T02:37:27.476Z,2.80
2023-01-25T02:39:54.144Z,2.70
2023-01-25T02:42:20.721Z,2.60
2023-01-25T02:44:48.676Z,2.60
2023-01-25T02:47:15.322Z,2.50
2023-01-25T02:49:41.913Z,2.50
2023-01-25T02:52:08.515Z,2.60
2023-01-25T02:54:35.136Z,2.60
2023-01-25T02:57:01.765Z,2.60
2023-01-25T02:59:28.377Z,2.60
2023-01-25T03:01:55.085Z,2.60
2023-01-25T03:04:21.705Z,2.60
2023-01-25T03:06:48.277Z,2.70
2023-01-25T03:09:14.843Z,2.70
2023-01-25T03:11:41.949Z,2.70
2023-01-25T03:14:08.607Z,2.70
2023-01-25T03:16:35.199Z,2.70
2023-01-25T03:19:01.833Z,2.70
2023-01-25T03:21:28.566Z,2.70
2023-01-25T03:23:57.868Z,2.70
2023-01-25T03:26:26.091Z,2.70
2023-01-25T03:28:52.651Z,2.70
2023-01-25T03:31:19.544Z,2.70
2023-01-25T03:33:46.624Z,2.70
2023-01-25T03:36:13.562Z,2.70
2023-01-25T03:38:40.367Z,2.80
2023-01-25T03:41:07.811Z,2.80
2023-01-25T03:43:34.514Z,2.70
2023-01-25T03:46:01.886Z,2.70
2023-01-25T03:48:29.304Z,2.70
2023-01-25T03:50:58.579Z,2.70
2023-01-25T03:53:30.037Z,2.70
2023-01-25T03:55:59.425Z,2.60
2023-01-25T03:58:28.021Z,2.60
2023-01-25T04:00:56.896Z,2.50
2023-01-25T04:03:23.779Z,2.50
2023-01-25T04:05:50.902Z,2.50
2023-01-25T04:08:17.867Z,2.50
2023-01-25T04:10:44.647Z,2.50
2023-01-25T04:13:11.319Z,2.50
2023-01-25T04:15:38.083Z,2.50
2023-01-25T04:18:04.673Z,2.50
2023-01-25T04:20:31.313Z,2.50
2023-01-25T04:22:57.977Z,2.50
2023-01-25T04:25:24.588Z,2.50
2023-01-25T04:27:51.525Z,2.50
2023-01-25T04:30:18.408Z,2.60
2023-01-25T04:32:45.177Z,2.60
2023-01-25T04:35:12.135Z,2.60
2023-01-25T04:37:38.906Z,2.60
2023-01-25T04:40:06.278Z,2.40
2023-01-25T04:42:32.936Z,2.50
2023-01-25T04:44:59.570Z,2.50
2023-01-25T04:47:26.178Z,2.40
2023-01-25T04:49:52.726Z,2.30
2023-01-25T04:52:20.100Z,2.30
2023-01-25T04:54:46.799Z,2.40
2023-01-25T04:57:13.464Z,2.40
2023-01-25T04:59:40.223Z,2.30
2023-01-25T05:02:06.948Z,2.40
2023-01-25T05:04:33.511Z,2.40
2023-01-25T05:07:00.099Z,2.40
2023-01-25T05:09:26.638Z,2.50
2023-01-25T05:11:53.269Z,2.50
2023-01-25T05:14:20.227Z,2.40
2023-01-25T05:16:47.506Z,2.40
2023-01-25T05:19:14.483Z,2.40
2023-01-25T05:21:59.126Z,2.40
2023-01-25T05:24:27.867Z,2.40
2023-01-25T05:27:00.420Z,2.30
2023-01-25T05:29:35.667Z,2.20
2023-01-25T05:32:21.265Z,2.20
2023-01-25T05:34:48.199Z,2.20
2023-01-25T05:37:17.938Z,2.30
2023-01-25T05:39:44.660Z,2.30
2023-01-25T05:42:16.850Z,2.20
2023-01-25T05:44:46.137Z,2.20
2023-01-25T05:47:16.354Z,2.20
2023-01-25T05:49:43.121Z,2.20
2023-01-25T05:52:14.778Z,2.30
2023-01-25T05:54:41.531Z,2.30
2023-01-25T05:57:08.228Z,2.40
2023-01-25T05:59:34.863Z,2.30
2023-01-25T06:02:01.419Z,2.40
2023-01-25T06:04:28.055Z,2.40
2023-01-25T06:06:54.675Z,2.30
2023-01-25T06:09:22.336Z,2.40
2023-01-25T06:11:49.610Z,2.40
2023-01-25T06:14:16.188Z,2.40
2023-01-25T06:16:42.742Z,2.40
2023-01-25T06:19:09.438Z,2.40
2023-01-25T06:21:38.783Z,2.40
2023-01-25T06:24:05.985Z,2.40
2023-01-25T06:26:32.707Z,2.30
2023-01-25T06:28:59.503Z,2.40
2023-01-25T06:31:26.405Z,2.30
2023-01-25T06:33:53.241Z,2.30
2023-01-25T06:36:21.650Z,2.30
2023-01-25T06:38:52.369Z,2.30
2023-01-25T06:41:19.872Z,2.30
2023-01-25T06:43:47.925Z,2.30
2023-01-25T06:46:14.700Z,2.30
2023-01-25T06:48:42.889Z,2.30
2023-01-25T06:51:11.676Z,2.30
2023-01-25T06:53:40.669Z,2.30
2023-01-25T06:56:14.724Z,2.30
2023-01-25T06:58:42.113Z,2.30
2023-01-25T07:01:20.510Z,2.30
2023-01-25T07:03:52.140Z,2.30
2023-01-25T07:06:19.336Z,2.30
2023-01-25T07:08:46.350Z,2.40
2023-01-25T07:11:13.973Z,2.40
2023-01-25T07:13:48.697Z,2.30
2023-01-25T07:16:20.230Z,2.30
2023-01-25T07:18:47.470Z,2.30
2023-01-25T07:21:21.652Z,2.30
2023-01-25T07:23:50.115Z,2.40
2023-01-25T07:26:23.569Z,2.40
2023-01-25T07:28:51.009Z,2.30
2023-01-25T07:31:18.622Z,2.20
2023-01-25T07:33:51.576Z,2.20
2023-01-25T07:36:18.516Z,2.10
2023-01-25T07:38:45.457Z,2.20
2023-01-25T07:41:12.957Z,2.20
2023-01-25T07:43:39.872Z,2.20
2023-01-25T07:46:11.079Z,2.20
2023-01-25T07:48:38.383Z,2.10
2023-01-25T07:51:12.775Z,2.00
2023-01-25T07:53:40.647Z,2.10
2023-01-25T07:56:08.611Z,2.10
2023-01-25T07:58:35.216Z,2.10
2023-01-25T08:01:16.814Z,2.10
2023-01-25T08:03:46.297Z,2.10
2023-01-25T08:06:13.562Z,2.20
2023-01-25T08:08:43.153Z,2.10
2023-01-25T08:11:13.336Z,2.00
2023-01-25T08:13:40.682Z,2.00
2023-01-25T08:16:07.592Z,2.10
2023-01-25T08:18:35.988Z,2.10
2023-01-25T08:21:03.488Z,2.20
2023-01-25T08:23:30.257Z,2.20
2023-01-25T08:26:02.019Z,2.20
2023-01-25T08:28:28.625Z,2.20
2023-01-25T08:30:57.456Z,2.30
2023-01-25T08:33:24.281Z,2.30
2023-01-25T08:35:57.474Z,2.30
2023-01-25T08:38:24.462Z,2.30
2023-01-25T08:40:51.424Z,2.30
2023-01-25T08:43:18.302Z,2.30
2023-01-25T08:45:45.277Z,2.20
2023-01-25T08:48:16.500Z,2.20
2023-01-25T08:50:49.869Z,2.20
2023-01-25T08:53:16.529Z,2.10
2023-01-25T08:55:43.203Z,2.10
2023-01-25T08:58:13.937Z,2.00
2023-01-25T09:00:41.647Z,2.00
2023-01-25T09:03:08.936Z,2.00
2023-01-25T09:05:39.456Z,2.10
2023-01-25T09:08:07.931Z,2.10
2023-01-25T09:10:35.257Z,2.20
2023-01-25T09:13:01.928Z,2.20
2023-01-25T09:15:28.688Z,2.20
2023-01-25T09:17:56.771Z,2.20
2023-01-25T09:20:23.977Z,2.20
2023-01-25T09:22:50.657Z,2.30
2023-01-25T09:25:17.422Z,2.30
2023-01-25T09:27:43.972Z,2.20
2023-01-25T09:30:18.291Z,2.20
2023-01-25T09:32:45.649Z,2.20
2023-01-25T09:35:12.293Z,2.10
2023-01-25T09:37:39.018Z,2.10
2023-01-25T09:40:07.446Z,2.10
2023-01-25T09:42:50.773Z,2.20
2023-01-25T09:45:25.765Z,2.10
2023-01-25T09:48:08.532Z,2.00
2023-01-25T09:50:36.778Z,2.00
2023-01-25T09:53:35.074Z,2.10
2023-01-25T09:56:33.941Z,2.20
2023-01-25T09:59:05.992Z,2.20
2023-01-25T10:01:42.018Z,2.30
2023-01-25T10:04:17.588Z,2.20
2023-01-25T10:06:59.818Z,2.20
2023-01-25T10:09:51.612Z,2.10
2023-01-25T10:12:23.888Z,2.20
2023-01-25T10:14:51.272Z,2.20
2023-01-25T10:17:37.030Z,2.20
2023-01-25T10:20:09.368Z,2.20
2023-01-25T10:22:46.950Z,2.10
2023-01-25T10:25:32.038Z,2.20
2023-01-25T10:28:16.821Z,2.20
2023-01-25T10:31:10.588Z,2.30
2023-01-25T10:33:40.631Z,2.40
2023-01-25T10:36:10.200Z,2.40
2023-01-25T10:38:46.096Z,2.50
2023-01-25T10:41:19.996Z,2.50
2023-01-25T10:43:46.647Z,2.50
2023-01-25T10:46:21.666Z,2.50
2023-01-25T10:48:48.522Z,2.60
2023-01-25T10:51:30.211Z,2.70
2023-01-25T10:54:03.633Z,2.70
2023-01-25T10:56:34.277Z,2.70
2023-01-25T10:59:28.567Z,2.70
2023-01-25T11:01:55.400Z,2.70
2023-01-25T11:04:35.363Z,2.60
2023-01-25T11:07:06.010Z,2.60
2023-01-25T11:09:36.114Z,2.70
2023-01-25T11:12:17.727Z,2.50
2023-01-25T11:14:45.125Z,2.50
2023-01-25T11:17:41.243Z,2.40
2023-01-25T11:20:20.479Z,2.40
2023-01-25T11:22:55.455Z,2.50
2023-01-25T11:25:34.888Z,2.40
2023-01-25T11:28:16.177Z,2.50
2023-01-25T11:30:43.093Z,2.50
2023-01-25T11:33:15.355Z,2.50
2023-01-25T11:36:03.267Z,2.60
2023-01-25T11:38:30.154Z,2.60
2023-01-25T11:41:32.809Z,2.70
2023-01-25T11:44:09.996Z,2.80
2023-01-25T11:46:52.956Z,2.90
2023-01-25T11:49:31.582Z,2.80
2023-01-25T11:52:13.866Z,2.80
2023-01-25T11:55:11.594Z,2.70
2023-01-25T11:57:45.193Z,2.60
2023-01-25T12:00:18.007Z,2.60
2023-01-25T12:03:04.045Z,2.60
2023-01-25T12:05:42.586Z,2.70
2023-01-25T12:08:41.092Z,2.70
2023-01-25T12:11:34.481Z,2.80
2023-01-25T12:14:20.080Z,2.70
2023-01-25T12:17:27.164Z,2.70
2023-01-25T12:20:07.847Z,2.70
2023-01-25T12:22:57.008Z,2.60
2023-01-25T12:25:45.175Z,2.70
2023-01-25T12:28:19.567Z,2.70
2023-01-25T12:31:10.397Z,2.80
2023-01-25T12:33:46.922Z,2.80
2023-01-25T12:36:24.680Z,2.80
2023-01-25T12:39:09.029Z,2.70
2023-01-25T12:42:08.864Z,2.80
2023-01-25T12:44:47.699Z,2.70
2023-01-25T12:47:39.072Z,2.70
2023-01-25T12:50:14.821Z,2.70
2023-01-25T12:52:53.838Z,2.80
2023-01-25T12:55:20.989Z,2.80
2023-01-25T12:57:58.388Z,2.80
2023-01-25T13:00:36.782Z,2.90
2023-01-25T13:03:30.196Z,2.70
2023-01-25T13:06:06.689Z,2.70
2023-01-25T13:08:51.076Z,2.70
2023-01-25T13:11:36.973Z,2.70
2023-01-25T13:14:15.859Z,2.70
2023-01-25T13:16:50.160Z,2.70
2023-01-25T13:19:38.330Z,2.70
2023-01-25T13:22:05.435Z,2.70
2023-01-25T13:24:35.237Z,2.70
2023-01-25T13:27:24.834Z,2.70
2023-01-25T13:29:59.104Z,2.70
2023-01-25T13:32:25.717Z,2.70
2023-01-25T13:34:52.341Z,2.70
2023-01-25T13:37:31.223Z,2.70
2023-01-25T13:40:09.913Z,2.70
2023-01-25T13:42:39.482Z,2.70
2023-01-25T13:45:21.149Z,2.50
2023-01-25T13:48:10.979Z,2.50
2023-01-25T13:50:43.892Z,2.50
2023-01-25T13:53:16.504Z,2.60
2023-01-25T13:55:49.206Z,2.70
2023-01-25T13:58:30.776Z,2.60
2023-01-25T14:01:14.469Z,2.60
2023-01-25T14:03:45.025Z,2.60
2023-01-25T14:06:21.072Z,2.50
2023-01-25T14:08:48.967Z,2.50
2023-01-25T14:11:20.217Z,2.50
2023-01-25T14:14:09.518Z,2.50
2023-01-25T14:16:36.817Z,2.50
2023-01-25T14:19:28.836Z,2.60
2023-01-25T14:22:20.488Z,2.60
2023-01-25T14:25:01.647Z,2.60
2023-01-25T14:27:28.515Z,2.60
2023-01-25T14:29:55.250Z,2.60
2023-01-25T14:32:25.037Z,2.60
2023-01-25T14:34:51.667Z,2.60
2023-01-25T14:37:21.352Z,2.60
2023-01-25T14:39:49.515Z,2.50
2023-01-25T14:42:17.268Z,2.60
2023-01-25T14:44:45.152Z,2.60
2023-01-25T14:47:25.101Z,2.60
2023-01-25T14:49:51.712Z,2.60
2023-01-25T14:52:20.525Z,2.70
2023-01-25T14:55:00.204Z,2.70
2023-01-25T14:57:39.491Z,2.70
2023-01-25T15:00:24.190Z,2.70
2023-01-25T15:02:57.563Z,2.60
2023-01-25T15:05:27.602Z,2.60
2023-01-25T15:07:56.419Z,2.60
2023-01-25T15:10:33.291Z,2.50
2023-01-25T15:13:14.639Z,2.50
2023-01-25T15:15:59.898Z,2.40
2023-01-25T15:18:52.744Z,2.50
2023-01-25T15:21:30.929Z,2.50
2023-01-25T15:24:04.389Z,2.60
2023-01-25T15:26:35.783Z,2.60
2023-01-25T15:29:13.786Z,2.70
2023-01-25T15:31:42.108Z,2.60
2023-01-25T15:34:21.102Z,2.50
2023-01-25T15:36:48.161Z,2.50
2023-01-25T15:39:16.735Z,2.40
2023-01-25T15:41:43.826Z,2.30
2023-01-25T15:44:10.842Z,2.30
2023-01-25T15:46:41.843Z,2.30
2023-01-25T15:49:15.202Z,2.30
2023-01-25T15:51:41.784Z,2.30
2023-01-25T15:54:09.084Z,2.30
2023-01-25T15:56:37.774Z,2.30
2023-01-25T15:59:13.453Z,2.30
2023-01-25T16:01:40.072Z,2.20
2023-01-25T16:04:06.724Z,2.20
2023-01-25T16:06:44.229Z,2.20
2023-01-25T16:09:26.674Z,2.30
2023-01-25T16:11:55.382Z,2.30
2023-01-25T16:14:23.667Z,2.30
2023-01-25T16:16:52.814Z,2.40
2023-01-25T16:19:21.979Z,2.40
2023-01-25T16:21:49.216Z,2.40
2023-01-25T16:24:16.468Z,2.30
2023-01-25T16:26:54.310Z,2.30
2023-01-25T16:29:22.921Z,2.20
2023-01-25T16:31:50.242Z,2.20
2023-01-25T16:34:16.993Z,2.30
2023-01-25T16:36:49.893Z,2.20
2023-01-25T16:39:22.035Z,2.30
2023-01-25T16:41:49.292Z,2.30
2023-01-25T16:44:16.728Z,2.30
2023-01-25T16:46:43.933Z,2.40
2023-01-25T16:49:16.602Z,2.40
2023-01-25T16:51:45.225Z,2.30
2023-01-25T16:54:12.487Z,2.30
2023-01-25T16:56:39.135Z,2.30
2023-01-25T16:59:06.394Z,2.20
2023-01-25T17:01:33.373Z,2.20
2023-01-25T17:04:00.075Z,2.00
2023-01-25T17:06:31.200Z,2.00
2023-01-25T17:09:12.583Z,2.00
2023-01-25T17:11:47.491Z,2.10
2023-01-25T17:14:17.285Z,2.10
2023-01-25T17:16:45.007Z,2.10
2023-01-25T17:19:14.891Z,2.20
2023-01-25T17:21:41.472Z,2.30
2023-01-25T17:24:08.628Z,2.30
2023-01-25T17:26:35.529Z,2.20
2023-01-25T17:29:05.265Z,2.20
2023-01-25T17:31:35.215Z,2.10
2023-01-25T17:34:05.002Z,2.20
2023-01-25T17:36:31.889Z,2.10
2023-01-25T17:39:06.498Z,2.10
2023-01-25T17:41:33.709Z,2.20
2023-01-25T17:44:00.678Z,2.20
2023-01-25T17:46:33.659Z,2.20
2023-01-25T17:49:02.269Z,2.20
2023-01-25T17:51:29.257Z,2.20
2023-01-25T17:53:57.136Z,2.20
2023-01-25T17:56:24.028Z,2.20
2023-01-25T17:58:50.724Z,2.20
2023-01-25T18:01:23.663Z,2.20
2023-01-25T18:03:52.025Z,2.20
2023-01-25T18:06:21.011Z,2.20
2023-01-25T18:08:50.388Z,2.20
2023-01-25T18:11:20.342Z,2.20
2023-01-25T18:13:49.280Z,2.20
2023-01-25T18:16:17.497Z,2.30
2023-01-25T18:18:45.581Z,2.30
2023-01-25T18:21:15.145Z,2.30
2023-01-25T18:23:46.288Z,2.20
2023-01-25T18:26:22.028Z,2.10
2023-01-25T18:28:49.764Z,2.10
2023-01-25T18:31:17.956Z,2.20
2023-01-25T18:33:45.005Z,2.10
2023-01-25T18:36:14.647Z,2.10
2023-01-25T18:38:41.337Z,2.00
2023-01-25T18:41:10.961Z,1.90
2023-01-25T18:43:37.934Z,2.00
2023-01-25T18:46:04.929Z,2.00
2023-01-25T18:48:32.130Z,2.00
2023-01-25T18:51:07.462Z,2.10
2023-01-25T18:53:36.187Z,2.10
2023-01-25T18:56:07.236Z,2.00
2023-01-25T18:58:35.615Z,2.10
2023-01-25T19:01:22.773Z,2.20
2023-01-25T19:03:50.672Z,2.10
2023-01-25T19:06:18.972Z,2.00
2023-01-25T19:08:49.687Z,2.20
2023-01-25T19:11:19.874Z,2.20
2023-01-25T19:13:46.846Z,2.20
2023-01-25T19:16:24.375Z,2.20
2023-01-25T19:18:53.576Z,2.20
2023-01-25T19:21:20.219Z,2.20
2023-01-25T19:23:47.738Z,2.30
2023-01-25T19:26:16.981Z,2.30
2023-01-25T19:28:44.042Z,2.40
2023-01-25T19:31:16.410Z,2.40
2023-01-25T19:33:43.415Z,2.40
2023-01-25T19:36:18.148Z,2.40
2023-01-25T19:38:46.383Z,2.30
2023-01-25T19:41:15.383Z,2.30
2023-01-25T19:43:42.663Z,2.40
2023-01-25T19:46:13.843Z,2.30
2023-01-25T19:48:41.824Z,2.30
2023-01-25T19:51:11.102Z,2.30
2023-01-25T19:53:38.812Z,2.30
2023-01-25T19:56:07.267Z,2.30
2023-01-25T19:58:34.259Z,2.20
2023-01-25T20:01:08.994Z,2.30
2023-01-25T20:03:36.098Z,2.30
2023-01-25T20:06:03.949Z,2.30
2023-01-25T20:08:31.620Z,2.30
2023-01-25T20:11:04.964Z,2.30
2023-01-25T20:13:32.360Z,2.30
2023-01-25T20:15:58.985Z,2.30
2023-01-25T20:18:26.094Z,2.30
2023-01-25T20:21:07.233Z,2.30
2023-01-25T20:23:40.679Z,2.20
2023-01-25T20:26:13.670Z,2.20
2023-01-25T20:28:41.711Z,2.20
2023-01-25T20:31:28.189Z,2.30
2023-01-25T20:33:57.246Z,2.30
2023-01-25T20:36:24.979Z,2.30
2023-01-25T20:38:51.750Z,2.40
2023-01-25T20:41:19.048Z,2.40
2023-01-25T20:43:50.401Z,2.50
2023-01-25T20:46:18.071Z,2.50
2023-01-25T20:48:45.199Z,2.50
2023-01-25T20:51:14.526Z,2.40
2023-01-25T20:53:41.932Z,2.40
2023-01-25T20:56:10.150Z,2.30
2023-01-25T20:58:36.729Z,2.30
2023-01-25T21:01:04.657Z,2.30
2023-01-25T21:03:31.271Z,2.30
2023-01-25T21:06:00.403Z,2.40
2023-01-25T21:08:28.399Z,2.30
2023-01-25T21:10:59.321Z,2.30
2023-01-25T21:13:27.224Z,2.30
2023-01-25T21:16:10.611Z,2.20
2023-01-25T21:18:46.908Z,2.10
2023-01-25T21:21:14.787Z,2.20
2023-01-25T21:23:44.760Z,2.10
2023-01-25T21:26:15.563Z,2.10
2023-01-25T21:28:42.384Z,2.10
2023-01-25T21:31:12.036Z,2.20
2023-01-25T21:33:39.263Z,2.20
2023-01-25T21:36:11.389Z,2.10
2023-01-25T21:38:39.274Z,2.10
2023-01-25T21:41:07.986Z,2.10
2023-01-25T21:43:54.990Z,2.10
2023-01-25T21:46:26.743Z,2.10
2023-01-25T21:49:23.600Z,2.20
2023-01-25T21:51:52.629Z,2.20
2023-01-25T21:54:27.672Z,2.10
2023-01-25T21:56:56.345Z,2.20
2023-01-25T21:59:23.987Z,2.20
2023-01-25T22:01:51.756Z,2.20
2023-01-25T22:04:19.885Z,2.20
2023-01-25T22:06:48.539Z,2.20
2023-01-25T22:09:15.444Z,2.20
2023-01-25T22:11:42.115Z,2.20
2023-01-25T22:14:08.709Z,2.20
2023-01-25T22:16:35.456Z,2.20
2023-01-25T22:19:02.129Z,2.10
2023-01-25T22:21:31.941Z,2.20
2023-01-25T22:24:00.467Z,2.20
2023-01-25T22:26:39.120Z,2.20
2023-01-25T22:29:05.745Z,2.20
2023-01-25T22:31:32.560Z,2.10
2023-01-25T22:33:59.650Z,2.10
2023-01-25T22:36:28.816Z,2.20
2023-01-25T22:38:55.788Z,2.20
2023-01-25T22:41:28.286Z,2.20
2023-01-25T22:43:55.456Z,2.20
2023-01-25T22:46:24.896Z,2.20
2023-01-25T22:48:51.580Z,2.20
2023-01-25T22:51:25.431Z,2.20
2023-01-25T22:53:53.345Z,2.20
2023-01-25T22:56:25.607Z,2.20
2023-01-25T22:58:53.278Z,2.20
2023-01-25T23:01:28.589Z,2.10
2023-01-25T23:03:56.879Z,2.10
2023-01-25T23:06:28.932Z,2.10
2023-01-25T23:09:00.370Z,2.10
2023-01-25T23:11:32.249Z,2.10
2023-01-25T23:14:18.792Z,2.10
2023-01-25T23:16:45.531Z,2.20
2023-01-25T23:19:12.284Z,2.20
2023-01-25T23:21:39.242Z,2.20
2023-01-25T23:24:06.221Z,2.20
2023-01-25T23:26:37.466Z,2.20
2023-01-25T23:29:08.986Z,2.20
2023-01-25T23:31:36.285Z,2.10
2023-01-25T23:34:05.269Z,2.10
2023-01-25T23:36:38.465Z,2.00
2023-01-25T23:39:05.435Z,2.00
2023-01-25T23:41:32.150Z,2.10
2023-01-25T23:43:59.651Z,2.00
2023-01-25T23:46:28.070Z,2.00
2023-01-25T23:48:55.037Z,1.80
2023-01-25T23:51:21.642Z,1.90
2023-01-25T23:53:48.388Z,1.90
2023-01-25T23:56:21.801Z,1.90
2023-01-25T23:58:49.192Z,1.90
